createdAt,value
2017-05-18T00:00:07.512Z,24.55
2017-05-18T00:00:33.614Z,24.48
2017-05-18T00:00:59.724Z,24.45
2017-05-18T00:01:25.841Z,24.45
2017-05-18T00:01:51.940Z,24.5
2017-05-18T00:02:18.048Z,24.45
2017-05-18T00:02:44.248Z,24.33
2017-05-18T00:03:10.365Z,24.39
2017-05-18T00:03:36.556Z,24.53
2017-05-18T00:04:02.709Z,24.42
2017-05-18T00:04:28.862Z,24.47
2017-05-18T00:04:54.980Z,24.5
2017-05-18T00:05:21.081Z,24.55
2017-05-18T00:05:47.216Z,24.48
2017-05-18T00:06:13.344Z,24.5
2017-05-18T00:06:39.482Z,24.45
2017-05-18T00:07:05.595Z,24.5
2017-05-18T00:07:31.694Z,24.45
2017-05-18T00:07:57.811Z,24.48
2017-05-18T00:08:23.970Z,24.42
2017-05-18T00:08:50.099Z,24.47
2017-05-18T00:09:16.286Z,24.5
2017-05-18T00:09:42.421Z,24.48
2017-05-18T00:10:08.563Z,24.42
2017-05-18T00:10:34.670Z,24.42
2017-05-18T00:11:00.798Z,24.42
2017-05-18T00:11:26.890Z,24.45
2017-05-18T00:11:53.021Z,24.45
2017-05-18T00:12:19.151Z,24.48
2017-05-18T00:12:45.316Z,24.45
2017-05-18T00:13:11.421Z,24.47
2017-05-18T00:13:37.562Z,24.42
2017-05-18T00:14:03.680Z,24.51
2017-05-18T00:14:29.824Z,24.53
2017-05-18T00:14:56.011Z,24.42
2017-05-18T00:15:22.130Z,24.48
2017-05-18T00:15:48.251Z,24.4
2017-05-18T00:16:14.364Z,24.29
2017-05-18T00:16:40.501Z,24.3
2017-05-18T00:17:06.547Z,24.29
2017-05-18T00:17:32.660Z,24.35
2017-05-18T00:17:58.786Z,24.32
2017-05-18T00:18:24.930Z,24.32
2017-05-18T00:18:51.090Z,24.3
2017-05-18T00:19:17.248Z,24.3
2017-05-18T00:19:43.368Z,24.2
2017-05-18T00:20:09.526Z,24.32
2017-05-18T00:20:35.632Z,24.28
2017-05-18T00:21:01.751Z,24.32
2017-05-18T00:21:27.874Z,24.23
2017-05-18T00:21:53.993Z,24.3
2017-05-18T00:22:20.131Z,24.23
2017-05-18T00:22:46.232Z,24.21
2017-05-18T00:23:12.326Z,24.3
2017-05-18T00:23:38.534Z,24.29
2017-05-18T00:24:04.671Z,24.35
2017-05-18T00:24:30.785Z,24.32
2017-05-18T00:24:56.888Z,24.32
2017-05-18T00:25:23.024Z,24.35
2017-05-18T00:25:49.141Z,24.3
2017-05-18T00:26:15.315Z,24.29
2017-05-18T00:26:41.414Z,24.3
2017-05-18T00:27:07.521Z,24.18
2017-05-18T00:27:33.656Z,24.2
2017-05-18T00:27:59.771Z,24.29
2017-05-18T00:28:25.897Z,24.11
2017-05-18T00:28:52.089Z,24.2
2017-05-18T00:29:18.283Z,24.17
2017-05-18T00:29:44.429Z,24.14
2017-05-18T00:30:10.617Z,24.13
2017-05-18T00:30:36.714Z,24.16
2017-05-18T00:31:02.831Z,24.18
2017-05-18T00:31:28.942Z,24.18
2017-05-18T00:31:55.072Z,24.14
2017-05-18T00:32:21.203Z,24.21
2017-05-18T00:32:47.324Z,24.14
2017-05-18T00:33:13.471Z,24.21
2017-05-18T00:33:39.636Z,24.16
2017-05-18T00:34:05.789Z,24.13
2017-05-18T00:34:31.879Z,24.2
2017-05-18T00:34:58.017Z,24.14
2017-05-18T00:35:24.167Z,24.11
2017-05-18T00:35:50.261Z,24.16
2017-05-18T00:36:16.422Z,24.16
2017-05-18T00:36:42.540Z,24.14
2017-05-18T00:37:08.634Z,24.11
2017-05-18T00:37:34.762Z,24.08
2017-05-18T00:38:00.881Z,24.14
2017-05-18T00:38:26.993Z,24.02
2017-05-18T00:38:53.144Z,24.06
2017-05-18T00:39:19.289Z,24.11
2017-05-18T00:39:45.396Z,24.1
2017-05-18T00:40:11.498Z,24.13
2017-05-18T00:40:37.618Z,24.14
2017-05-18T00:41:03.777Z,24.14
2017-05-18T00:41:29.885Z,24.16
2017-05-18T00:41:55.975Z,24.16
2017-05-18T00:42:22.075Z,24.05
2017-05-18T00:42:48.269Z,24.05
2017-05-18T00:43:14.389Z,24.11
2017-05-18T00:43:40.524Z,24.1
2017-05-18T00:44:06.643Z,24.02
2017-05-18T00:44:32.829Z,24.08
2017-05-18T00:44:58.963Z,24.1
2017-05-18T00:45:25.081Z,24.13
2017-05-18T00:45:51.207Z,24.02
2017-05-18T00:46:17.315Z,24.06
2017-05-18T00:46:43.409Z,24.1
2017-05-18T00:47:09.533Z,24.08
2017-05-18T00:47:35.644Z,24.03
2017-05-18T00:48:01.794Z,24.14
2017-05-18T00:48:27.935Z,24.06
2017-05-18T00:48:54.096Z,24.06
2017-05-18T00:49:20.224Z,24.02
2017-05-18T00:49:46.390Z,24.02
2017-05-18T00:50:12.526Z,24.03
2017-05-18T00:50:38.625Z,24.08
2017-05-18T00:51:04.737Z,24.13
2017-05-18T00:51:30.855Z,24.13
2017-05-18T00:51:56.949Z,24.06
2017-05-18T00:52:23.087Z,24.06
2017-05-18T00:52:49.267Z,24.06
2017-05-18T00:53:15.386Z,24.05
2017-05-18T00:53:41.549Z,24.02
2017-05-18T00:54:07.734Z,24.08
2017-05-18T00:54:33.860Z,23.99
2017-05-18T00:55:00.009Z,24.02
2017-05-18T00:55:26.100Z,24.06
2017-05-18T00:55:52.208Z,24.13
2017-05-18T00:56:18.333Z,23.98
2017-05-18T00:56:44.454Z,23.98
2017-05-18T00:57:10.613Z,23.95
2017-05-18T00:57:36.716Z,23.99
2017-05-18T00:58:02.883Z,23.96
2017-05-18T00:58:29.062Z,24.11
2017-05-18T00:58:55.225Z,23.99
2017-05-18T00:59:21.342Z,24.11
2017-05-18T00:59:47.443Z,24.05
2017-05-18T01:00:13.551Z,24.05
2017-05-18T01:00:39.646Z,24.03
2017-05-18T01:01:05.745Z,24.05
2017-05-18T01:01:31.879Z,24.11
2017-05-18T01:01:57.973Z,23.98
2017-05-18T01:02:24.088Z,23.99
2017-05-18T01:02:50.227Z,23.96
2017-05-18T01:03:16.353Z,24.03
2017-05-18T01:03:42.471Z,24.1
2017-05-18T01:04:08.632Z,23.93
2017-05-18T01:04:34.760Z,23.87
2017-05-18T01:05:00.877Z,24.03
2017-05-18T01:05:27.005Z,23.96
2017-05-18T01:05:53.126Z,23.88
2017-05-18T01:06:19.268Z,24.03
2017-05-18T01:06:45.394Z,24.02
2017-05-18T01:07:11.505Z,23.91
2017-05-18T01:07:37.615Z,23.96
2017-05-18T01:08:03.750Z,24.1
2017-05-18T01:08:29.917Z,24.05
2017-05-18T01:08:56.047Z,24.14
2017-05-18T01:09:22.239Z,24.14
2017-05-18T01:09:48.328Z,24.01
2017-05-18T01:10:14.454Z,24.17
2017-05-18T01:10:40.559Z,24.08
2017-05-18T01:11:06.654Z,24.06
2017-05-18T01:11:32.760Z,24.14
2017-05-18T01:11:58.874Z,24.06
2017-05-18T01:12:24.979Z,24.05
2017-05-18T01:12:51.143Z,24.01
2017-05-18T01:13:17.283Z,24.02
2017-05-18T01:13:43.435Z,23.91
2017-05-18T01:14:09.569Z,24.01
2017-05-18T01:14:35.663Z,23.98
2017-05-18T01:15:01.761Z,24.02
2017-05-18T01:15:27.900Z,24.02
2017-05-18T01:15:53.998Z,23.98
2017-05-18T01:16:20.140Z,24.03
2017-05-18T01:16:46.244Z,23.88
2017-05-18T01:17:12.346Z,23.87
2017-05-18T01:17:38.480Z,23.91
2017-05-18T01:18:04.699Z,23.95
2017-05-18T01:18:30.799Z,23.87
2017-05-18T01:18:56.936Z,23.96
2017-05-18T01:19:23.111Z,23.95
2017-05-18T01:19:49.254Z,23.92
2017-05-18T01:20:15.418Z,24.01
2017-05-18T01:20:41.516Z,24.02
2017-05-18T01:21:07.606Z,23.93
2017-05-18T01:21:33.741Z,24.01
2017-05-18T01:21:59.844Z,23.99
2017-05-18T01:22:25.970Z,24.02
2017-05-18T01:22:52.067Z,24.01
2017-05-18T01:23:18.206Z,23.96
2017-05-18T01:23:44.399Z,23.95
2017-05-18T01:24:10.576Z,24.01
2017-05-18T01:24:36.669Z,23.88
2017-05-18T01:25:02.852Z,23.87
2017-05-18T01:25:28.982Z,23.83
2017-05-18T01:25:55.076Z,23.86
2017-05-18T01:26:21.206Z,23.91
2017-05-18T01:26:47.342Z,23.91
2017-05-18T01:27:13.456Z,23.93
2017-05-18T01:27:39.588Z,23.81
2017-05-18T01:28:05.709Z,23.8
2017-05-18T01:28:31.870Z,23.78
2017-05-18T01:28:58.002Z,23.69
2017-05-18T01:29:24.193Z,23.73
2017-05-18T01:29:50.373Z,23.76
2017-05-18T01:30:16.481Z,23.77
2017-05-18T01:30:42.572Z,23.63
2017-05-18T01:31:08.702Z,23.74
2017-05-18T01:31:34.894Z,23.8
2017-05-18T01:32:00.987Z,23.71
2017-05-18T01:32:27.137Z,23.86
2017-05-18T01:32:53.245Z,23.78
2017-05-18T01:33:19.342Z,23.86
2017-05-18T01:33:45.531Z,23.84
2017-05-18T01:34:11.620Z,23.92
2017-05-18T01:34:37.773Z,23.92
2017-05-18T01:35:03.907Z,23.88
2017-05-18T01:35:30.001Z,23.91
2017-05-18T01:35:56.123Z,23.91
2017-05-18T01:36:22.261Z,23.77
2017-05-18T01:36:48.382Z,23.76
2017-05-18T01:37:14.479Z,23.66
2017-05-18T01:37:40.618Z,23.63
2017-05-18T01:38:06.715Z,23.78
2017-05-18T01:38:32.833Z,23.73
2017-05-18T01:38:58.972Z,23.76
2017-05-18T01:39:25.117Z,23.77
2017-05-18T01:39:51.280Z,23.8
2017-05-18T01:40:17.375Z,23.81
2017-05-18T01:40:43.490Z,23.71
2017-05-18T01:41:09.628Z,23.74
2017-05-18T01:41:35.781Z,23.77
2017-05-18T01:42:01.875Z,23.76
2017-05-18T01:42:27.984Z,23.76
2017-05-18T01:42:54.115Z,23.77
2017-05-18T01:43:20.261Z,23.78
2017-05-18T01:43:46.395Z,23.78
2017-05-18T01:44:12.560Z,23.76
2017-05-18T01:44:38.701Z,23.74
2017-05-18T01:45:04.852Z,23.71
2017-05-18T01:45:30.960Z,23.78
2017-05-18T01:45:57.103Z,23.62
2017-05-18T01:46:23.249Z,23.65
2017-05-18T01:46:49.385Z,23.68
2017-05-18T01:47:15.478Z,23.69
2017-05-18T01:47:41.593Z,23.68
2017-05-18T01:48:07.810Z,23.66
2017-05-18T01:48:33.938Z,23.54
2017-05-18T01:49:00.129Z,23.61
2017-05-18T01:49:26.237Z,23.65
2017-05-18T01:49:52.425Z,23.66
2017-05-18T01:50:18.552Z,23.59
2017-05-18T01:50:44.648Z,23.51
2017-05-18T01:51:10.763Z,23.51
2017-05-18T01:51:36.878Z,23.55
2017-05-18T01:52:03.055Z,23.51
2017-05-18T01:52:29.148Z,23.56
2017-05-18T01:52:55.282Z,23.63
2017-05-18T01:53:21.410Z,23.58
2017-05-18T01:53:47.594Z,23.54
2017-05-18T01:54:13.745Z,23.66
2017-05-18T01:54:39.880Z,23.58
2017-05-18T01:55:05.968Z,23.51
2017-05-18T01:55:32.071Z,23.51
2017-05-18T01:55:58.166Z,23.58
2017-05-18T01:56:24.349Z,23.58
2017-05-18T01:56:50.451Z,23.63
2017-05-18T01:57:16.544Z,23.58
2017-05-18T01:57:42.701Z,23.55
2017-05-18T01:58:08.839Z,23.56
2017-05-18T01:58:34.955Z,23.5
2017-05-18T01:59:01.107Z,23.56
2017-05-18T01:59:27.242Z,23.54
2017-05-18T01:59:53.335Z,23.5
2017-05-18T02:00:19.458Z,23.54
2017-05-18T02:00:45.565Z,23.55
2017-05-18T02:01:11.691Z,23.51
2017-05-18T02:01:37.822Z,23.55
2017-05-18T02:02:03.913Z,23.43
2017-05-18T02:02:30.015Z,23.48
2017-05-18T02:02:56.177Z,23.56
2017-05-18T02:03:22.323Z,23.43
2017-05-18T02:03:48.472Z,23.37
2017-05-18T02:04:14.581Z,23.37
2017-05-18T02:04:40.731Z,23.39
2017-05-18T02:05:06.827Z,23.37
2017-05-18T02:05:32.962Z,23.47
2017-05-18T02:05:59.063Z,23.46
2017-05-18T02:06:25.158Z,23.51
2017-05-18T02:06:51.291Z,23.37
2017-05-18T02:07:17.387Z,23.46
2017-05-18T02:07:43.498Z,23.58
2017-05-18T02:08:09.648Z,23.56
2017-05-18T02:08:35.791Z,23.4
2017-05-18T02:09:01.906Z,23.48
2017-05-18T02:09:28.028Z,23.44
2017-05-18T02:09:54.147Z,23.4
2017-05-18T02:10:20.307Z,23.46
2017-05-18T02:10:46.408Z,23.54
2017-05-18T02:11:12.500Z,23.55
2017-05-18T02:11:38.654Z,23.44
2017-05-18T02:12:04.790Z,23.54
2017-05-18T02:12:30.936Z,23.54
2017-05-18T02:12:57.080Z,23.48
2017-05-18T02:13:23.199Z,23.61
2017-05-18T02:13:49.331Z,23.58
2017-05-18T02:14:15.433Z,23.59
2017-05-18T02:14:41.599Z,23.5
2017-05-18T02:15:07.704Z,23.5
2017-05-18T02:15:33.841Z,23.54
2017-05-18T02:15:59.930Z,23.58
2017-05-18T02:16:26.032Z,23.51
2017-05-18T02:16:52.141Z,23.48
2017-05-18T02:17:18.261Z,23.56
2017-05-18T02:17:44.382Z,23.47
2017-05-18T02:18:10.533Z,23.5
2017-05-18T02:18:36.667Z,23.59
2017-05-18T02:19:02.859Z,23.55
2017-05-18T02:19:28.974Z,23.55
2017-05-18T02:19:55.130Z,23.59
2017-05-18T02:20:21.264Z,23.54
2017-05-18T02:20:47.358Z,23.41
2017-05-18T02:21:13.483Z,23.4
2017-05-18T02:21:39.620Z,23.43
2017-05-18T02:22:05.717Z,23.44
2017-05-18T02:22:31.810Z,23.48
2017-05-18T02:22:57.977Z,23.5
2017-05-18T02:23:24.126Z,23.43
2017-05-18T02:23:50.275Z,23.47
2017-05-18T02:24:16.411Z,23.5
2017-05-18T02:24:42.490Z,23.59
2017-05-18T02:25:08.628Z,23.58
2017-05-18T02:25:34.778Z,23.59
2017-05-18T02:26:00.873Z,23.61
2017-05-18T02:26:26.986Z,23.61
2017-05-18T02:26:53.141Z,23.5
2017-05-18T02:27:19.232Z,23.51
2017-05-18T02:27:45.367Z,23.43
2017-05-18T02:28:11.469Z,23.46
2017-05-18T02:28:37.563Z,23.44
2017-05-18T02:29:03.669Z,23.47
2017-05-18T02:29:29.859Z,23.56
2017-05-18T02:29:55.972Z,23.56
2017-05-18T02:30:22.073Z,23.51
2017-05-18T02:30:48.181Z,23.54
2017-05-18T02:31:14.324Z,23.54
2017-05-18T02:31:40.448Z,23.41
2017-05-18T02:32:06.585Z,23.47
2017-05-18T02:32:32.732Z,23.43
2017-05-18T02:32:58.850Z,23.48
2017-05-18T02:33:25.017Z,23.47
2017-05-18T02:33:51.140Z,23.4
2017-05-18T02:34:17.256Z,23.44
2017-05-18T02:34:43.366Z,23.4
2017-05-18T02:35:09.486Z,23.41
2017-05-18T02:35:35.620Z,23.28
2017-05-18T02:36:01.741Z,23.32
2017-05-18T02:36:27.835Z,23.39
2017-05-18T02:36:53.946Z,23.25
2017-05-18T02:37:20.045Z,23.37
2017-05-18T02:37:46.138Z,23.2
2017-05-18T02:38:12.273Z,23.21
2017-05-18T02:38:38.373Z,23.23
2017-05-18T02:39:04.466Z,23.24
2017-05-18T02:39:30.623Z,23.32
2017-05-18T02:39:56.759Z,23.28
2017-05-18T02:40:22.880Z,23.27
2017-05-18T02:40:48.985Z,23.37
2017-05-18T02:41:15.128Z,23.37
2017-05-18T02:41:41.277Z,23.24
2017-05-18T02:42:07.399Z,23.21
2017-05-18T02:42:33.506Z,23.24
2017-05-18T02:42:59.653Z,23.24
2017-05-18T02:43:25.798Z,23.2
2017-05-18T02:43:51.939Z,23.17
2017-05-18T02:44:18.039Z,23.17
2017-05-18T02:44:44.153Z,23.2
2017-05-18T02:45:10.343Z,23.21
2017-05-18T02:45:36.445Z,23.15
2017-05-18T02:46:02.595Z,23.18
2017-05-18T02:46:28.695Z,23.2
2017-05-18T02:46:54.812Z,23.2
2017-05-18T02:47:20.951Z,23.27
2017-05-18T02:47:47.051Z,23.21
2017-05-18T02:48:13.191Z,23.2
2017-05-18T02:48:39.380Z,23.27
2017-05-18T02:49:05.537Z,23.27
2017-05-18T02:49:31.678Z,23.25
2017-05-18T02:49:57.863Z,23.2
2017-05-18T02:50:23.940Z,23.27
2017-05-18T02:50:50.030Z,23.24
2017-05-18T02:51:16.162Z,23.34
2017-05-18T02:51:42.285Z,23.31
2017-05-18T02:52:08.473Z,23.21
2017-05-18T02:52:34.543Z,23.27
2017-05-18T02:53:00.663Z,23.21
2017-05-18T02:53:26.790Z,23.24
2017-05-18T02:53:52.899Z,23.37
2017-05-18T02:54:19.066Z,23.28
2017-05-18T02:54:45.241Z,23.2
2017-05-18T02:55:11.345Z,23.13
2017-05-18T02:55:37.463Z,23.15
2017-05-18T02:56:03.564Z,23.13
2017-05-18T02:56:29.700Z,23.09
2017-05-18T02:56:55.821Z,23.15
2017-05-18T02:57:21.928Z,23.18
2017-05-18T02:57:48.072Z,23.15
2017-05-18T02:58:14.244Z,23.15
2017-05-18T02:58:40.381Z,23.15
2017-05-18T02:59:06.498Z,23.12
2017-05-18T02:59:32.622Z,23.17
2017-05-18T02:59:58.758Z,23.18
2017-05-18T03:00:24.882Z,23.32
2017-05-18T03:00:50.976Z,23.32
2017-05-18T03:01:17.116Z,23.28
2017-05-18T03:01:43.219Z,23.31
2017-05-18T03:02:09.335Z,23.37
2017-05-18T03:02:35.470Z,23.32
2017-05-18T03:03:01.615Z,23.27
2017-05-18T03:03:27.780Z,23.21
2017-05-18T03:03:53.905Z,23.17
2017-05-18T03:04:19.998Z,23.17
2017-05-18T03:04:46.189Z,23.18
2017-05-18T03:05:12.343Z,23.1
2017-05-18T03:05:38.437Z,23.21
2017-05-18T03:06:04.543Z,23.18
2017-05-18T03:06:30.646Z,23.21
2017-05-18T03:06:56.738Z,23.23
2017-05-18T03:07:22.842Z,23.2
2017-05-18T03:07:48.978Z,23.1
2017-05-18T03:08:15.097Z,23.2
2017-05-18T03:08:41.224Z,23.13
2017-05-18T03:09:07.341Z,23.1
2017-05-18T03:09:33.504Z,23.13
2017-05-18T03:09:59.634Z,23.1
2017-05-18T03:10:25.728Z,23
2017-05-18T03:10:51.859Z,23.02
2017-05-18T03:11:17.962Z,22.91
2017-05-18T03:11:44.050Z,23
2017-05-18T03:12:10.176Z,23.03
2017-05-18T03:12:36.284Z,23.02
2017-05-18T03:13:02.452Z,22.9
2017-05-18T03:13:28.577Z,22.85
2017-05-18T03:13:54.683Z,22.91
2017-05-18T03:14:20.828Z,22.9
2017-05-18T03:14:46.919Z,22.84
2017-05-18T03:15:13.088Z,22.9
2017-05-18T03:15:39.212Z,22.85
2017-05-18T03:16:05.343Z,22.93
2017-05-18T03:16:31.436Z,22.99
2017-05-18T03:16:57.539Z,22.94
2017-05-18T03:17:23.656Z,23.12
2017-05-18T03:17:49.814Z,23
2017-05-18T03:18:15.950Z,23.03
2017-05-18T03:18:42.068Z,22.94
2017-05-18T03:19:08.192Z,22.96
2017-05-18T03:19:34.312Z,23.08
2017-05-18T03:20:00.450Z,22.9
2017-05-18T03:20:26.552Z,23.03
2017-05-18T03:20:52.693Z,23.05
2017-05-18T03:21:18.829Z,23.05
2017-05-18T03:21:44.962Z,22.94
2017-05-18T03:22:11.048Z,23
2017-05-18T03:22:37.170Z,23.03
2017-05-18T03:23:03.334Z,23.08
2017-05-18T03:23:29.425Z,23.02
2017-05-18T03:23:55.574Z,23
2017-05-18T03:24:21.681Z,23.09
2017-05-18T03:24:47.778Z,23.02
2017-05-18T03:25:13.938Z,22.98
2017-05-18T03:25:40.027Z,23.03
2017-05-18T03:26:06.128Z,23.02
2017-05-18T03:26:32.263Z,23.02
2017-05-18T03:26:58.355Z,23.06
2017-05-18T03:27:24.477Z,23.1
2017-05-18T03:27:50.613Z,23.12
2017-05-18T03:28:16.736Z,23.09
2017-05-18T03:28:42.828Z,23.09
2017-05-18T03:29:08.995Z,23.08
2017-05-18T03:29:35.149Z,23.05
2017-05-18T03:30:01.240Z,23.1
2017-05-18T03:30:27.372Z,23.12
2017-05-18T03:30:53.493Z,23.09
2017-05-18T03:31:19.602Z,23.13
2017-05-18T03:31:45.696Z,23.09
2017-05-18T03:32:11.787Z,23
2017-05-18T03:32:37.925Z,23.09
2017-05-18T03:33:04.076Z,23.08
2017-05-18T03:33:30.194Z,23
2017-05-18T03:33:56.383Z,23.05
2017-05-18T03:34:22.510Z,23.05
2017-05-18T03:34:48.650Z,22.98
2017-05-18T03:35:14.751Z,23
2017-05-18T03:35:40.887Z,23.03
2017-05-18T03:36:06.983Z,22.99
2017-05-18T03:36:33.081Z,23.05
2017-05-18T03:36:59.198Z,23.08
2017-05-18T03:37:25.335Z,22.96
2017-05-18T03:37:51.464Z,22.96
2017-05-18T03:38:17.555Z,22.94
2017-05-18T03:38:43.686Z,22.91
2017-05-18T03:39:09.844Z,22.91
2017-05-18T03:39:35.956Z,22.88
2017-05-18T03:40:02.057Z,22.93
2017-05-18T03:40:28.164Z,22.85
2017-05-18T03:40:54.255Z,22.65
2017-05-18T03:41:20.351Z,22.68
2017-05-18T03:41:46.474Z,22.72
2017-05-18T03:42:12.579Z,22.65
2017-05-18T03:42:38.687Z,22.66
2017-05-18T03:43:04.803Z,22.75
2017-05-18T03:43:30.933Z,22.72
2017-05-18T03:43:57.067Z,22.85
2017-05-18T03:44:23.186Z,22.83
2017-05-18T03:44:49.304Z,22.8
2017-05-18T03:45:15.466Z,22.78
2017-05-18T03:45:41.590Z,22.76
2017-05-18T03:46:07.670Z,22.76
2017-05-18T03:46:33.784Z,22.72
2017-05-18T03:46:59.881Z,22.76
2017-05-18T03:47:26.037Z,22.73
2017-05-18T03:47:52.182Z,22.75
2017-05-18T03:48:18.329Z,22.73
2017-05-18T03:48:44.520Z,22.75
2017-05-18T03:49:10.668Z,22.7
2017-05-18T03:49:36.786Z,22.69
2017-05-18T03:50:02.924Z,22.72
2017-05-18T03:50:29.024Z,22.7
2017-05-18T03:50:55.140Z,22.65
2017-05-18T03:51:21.247Z,22.68
2017-05-18T03:51:47.350Z,22.66
2017-05-18T03:52:13.491Z,22.7
2017-05-18T03:52:39.599Z,22.69
2017-05-18T03:53:05.715Z,22.68
2017-05-18T03:53:31.851Z,22.66
2017-05-18T03:53:57.975Z,22.63
2017-05-18T03:54:24.165Z,22.68
2017-05-18T03:54:50.321Z,22.72
2017-05-18T03:55:16.414Z,22.7
2017-05-18T03:55:42.530Z,22.62
2017-05-18T03:56:08.635Z,22.62
2017-05-18T03:56:34.733Z,22.66
2017-05-18T03:57:00.872Z,22.7
2017-05-18T03:57:27.000Z,22.66
2017-05-18T03:57:53.166Z,22.69
2017-05-18T03:58:19.340Z,22.69
2017-05-18T03:58:45.489Z,22.72
2017-05-18T03:59:11.624Z,22.72
2017-05-18T03:59:37.748Z,22.63
2017-05-18T04:00:03.889Z,22.68
2017-05-18T04:00:29.998Z,22.62
2017-05-18T04:00:56.173Z,22.65
2017-05-18T04:01:22.291Z,22.63
2017-05-18T04:01:48.455Z,22.59
2017-05-18T04:02:14.555Z,22.6
2017-05-18T04:02:40.673Z,22.62
2017-05-18T04:03:06.856Z,22.72
2017-05-18T04:03:33.000Z,22.75
2017-05-18T04:03:59.114Z,22.7
2017-05-18T04:04:25.262Z,22.76
2017-05-18T04:04:51.404Z,22.72
2017-05-18T04:05:17.539Z,22.72
2017-05-18T04:05:43.667Z,22.76
2017-05-18T04:06:09.758Z,22.69
2017-05-18T04:06:35.890Z,22.75
2017-05-18T04:07:02.025Z,22.72
2017-05-18T04:07:28.140Z,22.7
2017-05-18T04:07:54.293Z,22.72
2017-05-18T04:08:20.429Z,22.72
2017-05-18T04:08:46.549Z,22.76
2017-05-18T04:09:12.648Z,22.72
2017-05-18T04:09:38.764Z,22.78
2017-05-18T04:10:04.893Z,22.7
2017-05-18T04:10:31.001Z,22.83
2017-05-18T04:10:57.090Z,22.69
2017-05-18T04:11:23.193Z,22.68
2017-05-18T04:11:49.329Z,22.7
2017-05-18T04:12:15.447Z,22.75
2017-05-18T04:12:41.618Z,22.72
2017-05-18T04:13:07.784Z,22.72
2017-05-18T04:13:33.904Z,22.7
2017-05-18T04:14:00.045Z,22.81
2017-05-18T04:14:26.157Z,22.84
2017-05-18T04:14:52.334Z,22.87
2017-05-18T04:15:18.513Z,22.78
2017-05-18T04:15:44.570Z,22.8
2017-05-18T04:16:10.693Z,22.91
2017-05-18T04:16:36.801Z,22.88
2017-05-18T04:17:02.914Z,22.88
2017-05-18T04:17:29.006Z,22.91
2017-05-18T04:17:55.146Z,22.91
2017-05-18T04:18:21.273Z,22.9
2017-05-18T04:18:47.390Z,22.9
2017-05-18T04:19:13.603Z,22.73
2017-05-18T04:19:39.759Z,22.91
2017-05-18T04:20:05.902Z,22.96
2017-05-18T04:20:32.008Z,22.9
2017-05-18T04:20:58.099Z,22.87
2017-05-18T04:21:24.208Z,22.91
2017-05-18T04:21:50.362Z,22.91
2017-05-18T04:22:16.478Z,22.93
2017-05-18T04:22:42.642Z,22.85
2017-05-18T04:23:08.771Z,22.83
2017-05-18T04:23:34.883Z,22.81
2017-05-18T04:24:00.988Z,22.83
2017-05-18T04:24:27.150Z,22.84
2017-05-18T04:24:53.264Z,22.96
2017-05-18T04:25:19.393Z,22.87
2017-05-18T04:25:45.499Z,22.83
2017-05-18T04:26:11.592Z,22.84
2017-05-18T04:26:37.726Z,22.84
2017-05-18T04:27:03.821Z,22.93
2017-05-18T04:27:29.953Z,22.83
2017-05-18T04:27:56.090Z,22.87
2017-05-18T04:28:22.206Z,22.91
2017-05-18T04:28:48.309Z,22.94
2017-05-18T04:29:14.496Z,22.88
2017-05-18T04:29:40.592Z,22.93
2017-05-18T04:30:06.690Z,22.88
2017-05-18T04:30:32.799Z,22.87
2017-05-18T04:30:58.919Z,22.96
2017-05-18T04:31:25.009Z,22.99
2017-05-18T04:31:51.114Z,22.84
2017-05-18T04:32:17.292Z,22.93
2017-05-18T04:32:43.427Z,22.94
2017-05-18T04:33:09.545Z,22.91
2017-05-18T04:33:35.669Z,22.88
2017-05-18T04:34:01.834Z,22.91
2017-05-18T04:34:28.038Z,22.88
2017-05-18T04:34:54.130Z,22.9
2017-05-18T04:35:20.293Z,22.9
2017-05-18T04:35:46.392Z,22.88
2017-05-18T04:36:12.485Z,22.9
2017-05-18T04:36:38.622Z,22.99
2017-05-18T04:37:04.780Z,22.9
2017-05-18T04:37:30.907Z,22.93
2017-05-18T04:37:57.028Z,22.9
2017-05-18T04:38:23.169Z,22.91
2017-05-18T04:38:49.280Z,22.9
2017-05-18T04:39:15.404Z,22.94
2017-05-18T04:39:41.497Z,22.9
2017-05-18T04:40:07.632Z,22.91
2017-05-18T04:40:33.732Z,22.94
2017-05-18T04:40:59.850Z,22.94
2017-05-18T04:41:25.983Z,22.91
2017-05-18T04:41:52.146Z,22.91
2017-05-18T04:42:18.276Z,22.9
2017-05-18T04:42:44.407Z,22.91
2017-05-18T04:43:10.541Z,22.96
2017-05-18T04:43:36.684Z,22.99
2017-05-18T04:44:02.783Z,22.91
2017-05-18T04:44:28.919Z,22.88
2017-05-18T04:44:55.065Z,22.99
2017-05-18T04:45:21.181Z,22.93
2017-05-18T04:45:47.293Z,22.93
2017-05-18T04:46:13.424Z,22.87
2017-05-18T04:46:39.515Z,22.91
2017-05-18T04:47:05.622Z,22.96
2017-05-18T04:47:31.726Z,22.98
2017-05-18T04:47:57.845Z,23
2017-05-18T04:48:23.975Z,23.1
2017-05-18T04:48:50.121Z,23.1
2017-05-18T04:49:16.286Z,23
2017-05-18T04:49:42.413Z,23.1
2017-05-18T04:50:08.528Z,23.03
2017-05-18T04:50:34.689Z,23.05
2017-05-18T04:51:00.766Z,23.06
2017-05-18T04:51:26.933Z,23
2017-05-18T04:51:53.005Z,23.05
2017-05-18T04:52:19.112Z,22.98
2017-05-18T04:52:45.200Z,23.03
2017-05-18T04:53:11.352Z,23.06
2017-05-18T04:53:37.488Z,23.02
2017-05-18T04:54:03.734Z,23.02
2017-05-18T04:54:29.866Z,22.98
2017-05-18T04:54:55.981Z,23.02
2017-05-18T04:55:22.110Z,22.99
2017-05-18T04:55:48.274Z,23
2017-05-18T04:56:14.387Z,23.12
2017-05-18T04:56:40.489Z,23.17
2017-05-18T04:57:06.597Z,23.24
2017-05-18T04:57:32.689Z,23.28
2017-05-18T04:57:58.815Z,23.28
2017-05-18T04:58:24.950Z,23.27
2017-05-18T04:58:51.045Z,23.25
2017-05-18T04:59:17.163Z,23.37
2017-05-18T04:59:43.325Z,23.34
2017-05-18T05:00:09.478Z,23.31
2017-05-18T05:00:35.611Z,23.39
2017-05-18T05:01:01.703Z,23.23
2017-05-18T05:01:27.851Z,23.24
2017-05-18T05:01:54.010Z,23.34
2017-05-18T05:02:20.104Z,23.36
2017-05-18T05:02:46.221Z,23.47
2017-05-18T05:03:12.388Z,23.41
2017-05-18T05:03:38.541Z,23.28
2017-05-18T05:04:04.635Z,23.47
2017-05-18T05:04:30.766Z,23.44
2017-05-18T05:04:56.896Z,23.56
2017-05-18T05:05:23.050Z,23.47
2017-05-18T05:05:49.197Z,23.59
2017-05-18T05:06:15.288Z,23.61
2017-05-18T05:06:41.426Z,23.61
2017-05-18T05:07:07.523Z,23.55
2017-05-18T05:07:33.639Z,23.58
2017-05-18T05:07:59.748Z,23.51
2017-05-18T05:08:25.848Z,23.65
2017-05-18T05:08:51.965Z,23.58
2017-05-18T05:09:18.097Z,23.55
2017-05-18T05:09:44.231Z,23.51
2017-05-18T05:10:10.346Z,23.55
2017-05-18T05:10:36.479Z,23.54
2017-05-18T05:11:02.600Z,23.66
2017-05-18T05:11:28.736Z,23.58
2017-05-18T05:11:54.872Z,23.61
2017-05-18T05:12:20.986Z,23.59
2017-05-18T05:12:47.120Z,23.66
2017-05-18T05:13:13.304Z,23.62
2017-05-18T05:13:39.419Z,23.65
2017-05-18T05:14:05.522Z,23.62
2017-05-18T05:14:31.659Z,23.59
2017-05-18T05:14:57.750Z,23.65
2017-05-18T05:15:23.974Z,23.69
2017-05-18T05:15:50.081Z,23.68
2017-05-18T05:16:16.179Z,23.63
2017-05-18T05:16:42.287Z,23.74
2017-05-18T05:17:08.398Z,23.74
2017-05-18T05:17:34.556Z,23.87
2017-05-18T05:18:00.720Z,23.86
2017-05-18T05:18:26.843Z,23.91
2017-05-18T05:18:52.992Z,23.87
2017-05-18T05:19:19.100Z,23.84
2017-05-18T05:19:45.274Z,23.98
2017-05-18T05:20:11.391Z,23.87
2017-05-18T05:20:37.530Z,23.86
2017-05-18T05:21:03.658Z,23.95
2017-05-18T05:21:29.751Z,23.87
2017-05-18T05:21:55.857Z,23.81
2017-05-18T05:22:21.955Z,23.88
2017-05-18T05:22:48.063Z,23.84
2017-05-18T05:23:14.214Z,23.81
2017-05-18T05:23:40.308Z,23.84
2017-05-18T05:24:06.445Z,23.81
2017-05-18T05:24:32.598Z,23.87
2017-05-18T05:24:58.720Z,23.86
2017-05-18T05:25:24.850Z,23.88
2017-05-18T05:25:50.953Z,23.92
2017-05-18T05:26:17.045Z,23.87
2017-05-18T05:26:43.177Z,23.96
2017-05-18T05:27:09.283Z,23.88
2017-05-18T05:27:35.371Z,23.88
2017-05-18T05:28:01.500Z,23.92
2017-05-18T05:28:27.630Z,23.98
2017-05-18T05:28:53.746Z,23.98
2017-05-18T05:29:19.867Z,24.08
2017-05-18T05:29:45.975Z,24.02
2017-05-18T05:30:12.073Z,24.05
2017-05-18T05:30:38.166Z,24.08
2017-05-18T05:31:04.303Z,24.03
2017-05-18T05:31:30.430Z,24.13
2017-05-18T05:31:56.523Z,24.11
2017-05-18T05:32:22.631Z,24.16
2017-05-18T05:32:48.762Z,24.17
2017-05-18T05:33:14.943Z,24.08
2017-05-18T05:33:41.039Z,24.02
2017-05-18T05:34:07.180Z,24.11
2017-05-18T05:34:33.320Z,24.16
2017-05-18T05:34:59.571Z,24.14
2017-05-18T05:35:25.664Z,24.26
2017-05-18T05:35:51.787Z,24.29
2017-05-18T05:36:17.892Z,24.42
2017-05-18T05:36:43.987Z,24.38
2017-05-18T05:37:10.173Z,24.36
2017-05-18T05:37:36.310Z,24.4
2017-05-18T05:38:02.402Z,24.38